sensor_id;sensor_type;location;lat;lon;timestamp;P1;durP1;ratioP1;P2;durP2;ratioP2
16862;SDS011;52193;48.216;-1.698;2023-03-04T00:01:24;5.05;;;4.43;;
16862;SDS011;52193;48.216;-1.698;2023-03-04T00:03:51;4.67;;;4.10;;
16862;SDS011;52193;48.216;-1.698;2023-03-04T00:06:18;4.75;;;4.07;;
16862;SDS011;52193;48.216;-1.698;2023-03-04T00:08:45;4.78;;;4.00;;
16862;SDS011;52193;48.216;-1.698;2023-03-04T00:11:13;4.68;;;4.18;;
16862;SDS011;52193;48.216;-1.698;2023-03-04T00:13:40;5.57;;;4.23;;
16862;SDS011;52193;48.216;-1.698;2023-03-04T00:16:07;4.78;;;4.18;;
16862;SDS011;52193;48.216;-1.698;2023-03-04T00:18:34;4.80;;;4.07;;
16862;SDS011;52193;48.216;-1.698;2023-03-04T00:21:01;6.33;;;4.40;;
16862;SDS011;52193;48.216;-1.698;2023-03-04T00:23:28;4.88;;;3.97;;
16862;SDS011;52193;48.216;-1.698;2023-03-04T00:25:55;5.22;;;4.03;;
16862;SDS011;52193;48.216;-1.698;2023-03-04T00:28:23;4.67;;;4.17;;
16862;SDS011;52193;48.216;-1.698;2023-03-04T00:30:50;5.30;;;4.30;;
16862;SDS011;52193;48.216;-1.698;2023-03-04T00:33:17;4.78;;;4.30;;
16862;SDS011;52193;48.216;-1.698;2023-03-04T00:35:44;5.30;;;4.10;;
16862;SDS011;52193;48.216;-1.698;2023-03-04T00:38:11;4.83;;;4.10;;
16862;SDS011;52193;48.216;-1.698;2023-03-04T00:40:38;5.47;;;4.25;;
16862;SDS011;52193;48.216;-1.698;2023-03-04T00:43:05;5.40;;;4.10;;
16862;SDS011;52193;48.216;-1.698;2023-03-04T00:45:33;6.73;;;4.80;;
16862;SDS011;52193;48.216;-1.698;2023-03-04T00:48:00;4.95;;;4.38;;
16862;SDS011;52193;48.216;-1.698;2023-03-04T00:50:27;4.55;;;4.10;;
16862;SDS011;52193;48.216;-1.698;2023-03-04T00:52:54;4.63;;;4.18;;
16862;SDS011;52193;48.216;-1.698;2023-03-04T00:55:21;4.63;;;4.13;;
16862;SDS011;52193;48.216;-1.698;2023-03-04T00:57:48;4.97;;;4.35;;
16862;SDS011;52193;48.216;-1.698;2023-03-04T01:00:15;4.78;;;4.28;;
16862;SDS011;52193;48.216;-1.698;2023-03-04T01:02:44;4.70;;;4.30;;
16862;SDS011;52193;48.216;-1.698;2023-03-04T01:05:10;4.72;;;4.10;;
16862;SDS011;52193;48.216;-1.698;2023-03-04T01:07:38;5.00;;;4.40;;
16862;SDS011;52193;48.216;-1.698;2023-03-04T01:10:05;5.00;;;4.43;;
16862;SDS011;52193;48.216;-1.698;2023-03-04T01:12:33;5.03;;;4.63;;
16862;SDS011;52193;48.216;-1.698;2023-03-04T01:15:00;7.15;;;5.07;;
16862;SDS011;52193;48.216;-1.698;2023-03-04T01:17:27;6.07;;;5.00;;
16862;SDS011;52193;48.216;-1.698;2023-03-04T01:19:56;6.05;;;5.40;;
16862;SDS011;52193;48.216;-1.698;2023-03-04T01:22:22;5.88;;;5.20;;
16862;SDS011;52193;48.216;-1.698;2023-03-04T01:24:49;5.70;;;5.20;;
16862;SDS011;52193;48.216;-1.698;2023-03-04T01:27:16;5.63;;;5.05;;
16862;SDS011;52193;48.216;-1.698;2023-03-04T01:29:43;5.93;;;5.10;;
16862;SDS011;52193;48.216;-1.698;2023-03-04T01:32:10;5.97;;;5.07;;
16862;SDS011;52193;48.216;-1.698;2023-03-04T01:34:37;6.40;;;5.80;;
16862;SDS011;52193;48.216;-1.698;2023-03-04T01:37:06;6.15;;;5.57;;
16862;SDS011;52193;48.216;-1.698;2023-03-04T01:39:33;6.00;;;5.40;;
16862;SDS011;52193;48.216;-1.698;2023-03-04T01:42:00;5.75;;;5.15;;
16862;SDS011;52193;48.216;-1.698;2023-03-04T01:44:27;6.40;;;5.78;;
16862;SDS011;52193;48.216;-1.698;2023-03-04T01:46:54;6.47;;;5.88;;
16862;SDS011;52193;48.216;-1.698;2023-03-04T01:49:21;6.97;;;6.30;;
16862;SDS011;52193;48.216;-1.698;2023-03-04T01:51:49;7.47;;;6.75;;
16862;SDS011;52193;48.216;-1.698;2023-03-04T01:54:20;8.50;;;7.70;;
16862;SDS011;52193;48.216;-1.698;2023-03-04T01:56:48;8.90;;;8.00;;
16862;SDS011;52193;48.216;-1.698;2023-03-04T01:59:18;8.03;;;7.33;;
16862;SDS011;52193;48.216;-1.698;2023-03-04T02:01:46;7.30;;;6.70;;
16862;SDS011;52193;48.216;-1.698;2023-03-04T02:04:15;8.27;;;7.57;;
16862;SDS011;52193;48.216;-1.698;2023-03-04T02:06:43;7.72;;;7.03;;
16862;SDS011;52193;48.216;-1.698;2023-03-04T02:09:11;8.32;;;7.53;;
16862;SDS011;52193;48.216;-1.698;2023-03-04T02:11:40;8.43;;;7.72;;
16862;SDS011;52193;48.216;-1.698;2023-03-04T02:14:09;7.90;;;7.22;;
16862;SDS011;52193;48.216;-1.698;2023-03-04T02:16:36;7.97;;;7.28;;
16862;SDS011;52193;48.216;-1.698;2023-03-04T02:19:04;8.40;;;7.60;;
16862;SDS011;52193;48.216;-1.698;2023-03-04T02:21:32;8.63;;;7.82;;
16862;SDS011;52193;48.216;-1.698;2023-03-04T02:24:02;8.40;;;7.70;;
16862;SDS011;52193;48.216;-1.698;2023-03-04T02:26:38;9.82;;;8.95;;
16862;SDS011;52193;48.216;-1.698;2023-03-04T02:29:07;9.82;;;9.00;;
16862;SDS011;52193;48.216;-1.698;2023-03-04T02:31:37;10.57;;;9.57;;
16862;SDS011;52193;48.216;-1.698;2023-03-04T02:34:05;10.32;;;9.43;;
16862;SDS011;52193;48.216;-1.698;2023-03-04T02:36:36;9.60;;;8.77;;
16862;SDS011;52193;48.216;-1.698;2023-03-04T02:39:06;9.13;;;8.23;;
16862;SDS011;52193;48.216;-1.698;2023-03-04T02:41:38;9.05;;;8.27;;
16862;SDS011;52193;48.216;-1.698;2023-03-04T02:44:08;8.65;;;7.85;;
16862;SDS011;52193;48.216;-1.698;2023-03-04T02:46:42;8.98;;;8.27;;
16862;SDS011;52193;48.216;-1.698;2023-03-04T02:49:10;9.35;;;8.55;;
16862;SDS011;52193;48.216;-1.698;2023-03-04T02:51:36;10.23;;;9.23;;
16862;SDS011;52193;48.216;-1.698;2023-03-04T02:54:04;9.13;;;8.43;;
16862;SDS011;52193;48.216;-1.698;2023-03-04T02:56:44;9.23;;;8.43;;
16862;SDS011;52193;48.216;-1.698;2023-03-04T02:59:11;9.80;;;8.90;;
16862;SDS011;52193;48.216;-1.698;2023-03-04T03:01:38;9.10;;;8.40;;
16862;SDS011;52193;48.216;-1.698;2023-03-04T03:04:05;9.70;;;8.90;;
16862;SDS011;52193;48.216;-1.698;2023-03-04T03:06:32;9.50;;;8.80;;
16862;SDS011;52193;48.216;-1.698;2023-03-04T03:08:59;9.85;;;9.00;;
16862;SDS011;52193;48.216;-1.698;2023-03-04T03:11:26;9.82;;;8.93;;
16862;SDS011;52193;48.216;-1.698;2023-03-04T03:13:54;10.00;;;9.20;;
16862;SDS011;52193;48.216;-1.698;2023-03-04T03:16:21;9.68;;;8.88;;
16862;SDS011;52193;48.216;-1.698;2023-03-04T03:18:48;9.52;;;8.73;;
16862;SDS011;52193;48.216;-1.698;2023-03-04T03:21:15;9.87;;;9.07;;
16862;SDS011;52193;48.216;-1.698;2023-03-04T03:23:42;9.60;;;8.90;;
16862;SDS011;52193;48.216;-1.698;2023-03-04T03:26:09;9.85;;;9.07;;
16862;SDS011;52193;48.216;-1.698;2023-03-04T03:28:36;9.40;;;8.60;;
16862;SDS011;52193;48.216;-1.698;2023-03-04T03:31:05;9.95;;;9.20;;
16862;SDS011;52193;48.216;-1.698;2023-03-04T03:33:32;10.63;;;9.67;;
16862;SDS011;52193;48.216;-1.698;2023-03-04T03:35:59;10.37;;;9.57;;
16862;SDS011;52193;48.216;-1.698;2023-03-04T03:38:26;10.93;;;10.13;;
16862;SDS011;52193;48.216;-1.698;2023-03-04T03:40:53;10.60;;;9.70;;
16862;SDS011;52193;48.216;-1.698;2023-03-04T03:43:20;11.20;;;10.30;;
16862;SDS011;52193;48.216;-1.698;2023-03-04T03:45:47;10.80;;;9.90;;
16862;SDS011;52193;48.216;-1.698;2023-03-04T03:48:17;10.52;;;9.73;;
16862;SDS011;52193;48.216;-1.698;2023-03-04T03:50:44;10.93;;;10.02;;
16862;SDS011;52193;48.216;-1.698;2023-03-04T03:53:11;10.80;;;9.93;;
16862;SDS011;52193;48.216;-1.698;2023-03-04T03:55:38;11.68;;;10.68;;
16862;SDS011;52193;48.216;-1.698;2023-03-04T03:58:05;10.68;;;9.88;;
16862;SDS011;52193;48.216;-1.698;2023-03-04T04:00:32;11.85;;;10.95;;
16862;SDS011;52193;48.216;-1.698;2023-03-04T04:02:59;11.77;;;10.87;;
16862;SDS011;52193;48.216;-1.698;2023-03-04T04:05:28;11.10;;;10.30;;
16862;SDS011;52193;48.216;-1.698;2023-03-04T04:07:54;12.25;;;11.25;;
16862;SDS011;52193;48.216;-1.698;2023-03-04T04:10:21;12.25;;;11.30;;
16862;SDS011;52193;48.216;-1.698;2023-03-04T04:12:48;12.30;;;11.30;;
16862;SDS011;52193;48.216;-1.698;2023-03-04T04:15:15;12.45;;;11.32;;
16862;SDS011;52193;48.216;-1.698;2023-03-04T04:17:42;12.05;;;11.05;;
16862;SDS011;52193;48.216;-1.698;2023-03-04T04:20:10;12.00;;;11.10;;
16862;SDS011;52193;48.216;-1.698;2023-03-04T04:22:38;11.93;;;11.02;;
16862;SDS011;52193;48.216;-1.698;2023-03-04T04:25:06;11.88;;;10.98;;
16862;SDS011;52193;48.216;-1.698;2023-03-04T04:27:34;11.95;;;11.05;;
16862;SDS011;52193;48.216;-1.698;2023-03-04T04:30:02;11.75;;;10.85;;
16862;SDS011;52193;48.216;-1.698;2023-03-04T04:32:29;11.65;;;10.75;;
16862;SDS011;52193;48.216;-1.698;2023-03-04T04:34:56;12.02;;;11.02;;
16862;SDS011;52193;48.216;-1.698;2023-03-04T04:37:23;12.15;;;11.15;;
16862;SDS011;52193;48.216;-1.698;2023-03-04T04:39:51;12.02;;;11.07;;
16862;SDS011;52193;48.216;-1.698;2023-03-04T04:42:19;12.57;;;11.57;;
16862;SDS011;52193;48.216;-1.698;2023-03-04T04:44:46;12.23;;;11.32;;
16862;SDS011;52193;48.216;-1.698;2023-03-04T04:47:13;12.93;;;11.90;;
16862;SDS011;52193;48.216;-1.698;2023-03-04T04:49:40;12.38;;;11.38;;
16862;SDS011;52193;48.216;-1.698;2023-03-04T04:52:07;13.02;;;11.95;;
16862;SDS011;52193;48.216;-1.698;2023-03-04T04:54:34;11.27;;;10.50;;
16862;SDS011;52193;48.216;-1.698;2023-03-04T04:57:02;12.45;;;11.52;;
16862;SDS011;52193;48.216;-1.698;2023-03-04T04:59:29;12.23;;;11.23;;
16862;SDS011;52193;48.216;-1.698;2023-03-04T05:01:56;12.38;;;11.40;;
16862;SDS011;52193;48.216;-1.698;2023-03-04T05:04:23;12.15;;;11.25;;
16862;SDS011;52193;48.216;-1.698;2023-03-04T05:06:50;12.40;;;11.40;;
16862;SDS011;52193;48.216;-1.698;2023-03-04T05:09:17;11.77;;;10.93;;
16862;SDS011;52193;48.216;-1.698;2023-03-04T05:11:45;12.07;;;11.18;;
16862;SDS011;52193;48.216;-1.698;2023-03-04T05:14:13;12.65;;;11.65;;
16862;SDS011;52193;48.216;-1.698;2023-03-04T05:16:40;11.98;;;11.05;;
16862;SDS011;52193;48.216;-1.698;2023-03-04T05:19:07;11.90;;;11.10;;
16862;SDS011;52193;48.216;-1.698;2023-03-04T05:21:34;12.32;;;11.32;;
16862;SDS011;52193;48.216;-1.698;2023-03-04T05:24:00;12.05;;;11.05;;
16862;SDS011;52193;48.216;-1.698;2023-03-04T05:26:27;12.20;;;11.20;;
16862;SDS011;52193;48.216;-1.698;2023-03-04T05:28:54;12.20;;;11.40;;
16862;SDS011;52193;48.216;-1.698;2023-03-04T05:31:23;12.35;;;11.45;;
16862;SDS011;52193;48.216;-1.698;2023-03-04T05:33:50;12.57;;;11.65;;
16862;SDS011;52193;48.216;-1.698;2023-03-04T05:36:16;12.77;;;11.97;;
16862;SDS011;52193;48.216;-1.698;2023-03-04T05:38:43;13.40;;;12.48;;
16862;SDS011;52193;48.216;-1.698;2023-03-04T05:41:10;13.63;;;12.52;;
16862;SDS011;52193;48.216;-1.698;2023-03-04T05:43:37;13.88;;;12.88;;
16862;SDS011;52193;48.216;-1.698;2023-03-04T05:46:06;13.47;;;12.47;;
16862;SDS011;52193;48.216;-1.698;2023-03-04T05:48:35;13.68;;;12.68;;
16862;SDS011;52193;48.216;-1.698;2023-03-04T05:51:02;13.85;;;12.85;;
16862;SDS011;52193;48.216;-1.698;2023-03-04T05:53:29;9.85;;;9.10;;
16862;SDS011;52193;48.216;-1.698;2023-03-04T05:55:56;12.60;;;11.60;;
16862;SDS011;52193;48.216;-1.698;2023-03-04T05:58:24;13.05;;;11.85;;
16862;SDS011;52193;48.216;-1.698;2023-03-04T06:00:51;12.70;;;11.80;;
16862;SDS011;52193;48.216;-1.698;2023-03-04T06:03:19;13.32;;;12.32;;
16862;SDS011;52193;48.216;-1.698;2023-03-04T06:05:48;13.77;;;12.77;;
16862;SDS011;52193;48.216;-1.698;2023-03-04T06:08:15;14.02;;;13.02;;
16862;SDS011;52193;48.216;-1.698;2023-03-04T06:10:42;14.32;;;13.25;;
16862;SDS011;52193;48.216;-1.698;2023-03-04T06:13:09;14.07;;;13.13;;
16862;SDS011;52193;48.216;-1.698;2023-03-04T06:15:37;13.52;;;12.63;;
16862;SDS011;52193;48.216;-1.698;2023-03-04T06:18:04;13.85;;;12.73;;
16862;SDS011;52193;48.216;-1.698;2023-03-04T06:20:32;14.40;;;13.40;;
16862;SDS011;52193;48.216;-1.698;2023-03-04T06:23:00;13.52;;;12.52;;
16862;SDS011;52193;48.216;-1.698;2023-03-04T06:25:27;13.55;;;12.65;;
16862;SDS011;52193;48.216;-1.698;2023-03-04T06:27:54;14.68;;;13.43;;
16862;SDS011;52193;48.216;-1.698;2023-03-04T06:30:21;15.05;;;13.95;;
16862;SDS011;52193;48.216;-1.698;2023-03-04T06:32:48;13.43;;;12.43;;
16862;SDS011;52193;48.216;-1.698;2023-03-04T06:35:15;13.77;;;12.77;;
16862;SDS011;52193;48.216;-1.698;2023-03-04T06:37:42;13.68;;;12.68;;
16862;SDS011;52193;48.216;-1.698;2023-03-04T06:40:11;13.00;;;12.20;;
16862;SDS011;52193;48.216;-1.698;2023-03-04T06:42:38;14.18;;;13.23;;
16862;SDS011;52193;48.216;-1.698;2023-03-04T06:45:06;13.80;;;12.82;;
16862;SDS011;52193;48.216;-1.698;2023-03-04T06:47:34;14.23;;;13.23;;
16862;SDS011;52193;48.216;-1.698;2023-03-04T06:50:01;14.55;;;13.55;;
16862;SDS011;52193;48.216;-1.698;2023-03-04T06:52:28;15.55;;;14.35;;
16862;SDS011;52193;48.216;-1.698;2023-03-04T06:54:55;15.55;;;14.18;;
16862;SDS011;52193;48.216;-1.698;2023-03-04T06:57:23;16.15;;;14.95;;
16862;SDS011;52193;48.216;-1.698;2023-03-04T06:59:50;18.13;;;16.42;;
16862;SDS011;52193;48.216;-1.698;2023-03-04T07:02:17;16.27;;;14.98;;
16862;SDS011;52193;48.216;-1.698;2023-03-04T07:04:44;17.13;;;15.80;;
16862;SDS011;52193;48.216;-1.698;2023-03-04T07:07:11;16.55;;;15.15;;
16862;SDS011;52193;48.216;-1.698;2023-03-04T07:09:38;15.50;;;14.35;;
16862;SDS011;52193;48.216;-1.698;2023-03-04T07:12:05;14.70;;;13.50;;
16862;SDS011;52193;48.216;-1.698;2023-03-04T07:14:34;15.77;;;14.57;;
16862;SDS011;52193;48.216;-1.698;2023-03-04T07:17:01;15.43;;;14.30;;
16862;SDS011;52193;48.216;-1.698;2023-03-04T07:19:28;15.20;;;14.02;;
16862;SDS011;52193;48.216;-1.698;2023-03-04T07:21:55;13.45;;;12.55;;
16862;SDS011;52193;48.216;-1.698;2023-03-04T07:24:22;13.98;;;12.98;;
16862;SDS011;52193;48.216;-1.698;2023-03-04T07:26:49;13.38;;;12.30;;
16862;SDS011;52193;48.216;-1.698;2023-03-04T07:29:15;14.27;;;13.18;;
16862;SDS011;52193;48.216;-1.698;2023-03-04T07:31:44;14.13;;;13.02;;
16862;SDS011;52193;48.216;-1.698;2023-03-04T07:34:12;14.15;;;13.15;;
16862;SDS011;52193;48.216;-1.698;2023-03-04T07:36:39;14.05;;;12.95;;
16862;SDS011;52193;48.216;-1.698;2023-03-04T07:39:07;14.50;;;13.50;;
16862;SDS011;52193;48.216;-1.698;2023-03-04T07:41:35;13.35;;;12.20;;
16862;SDS011;52193;48.216;-1.698;2023-03-04T07:44:02;13.50;;;12.52;;
16862;SDS011;52193;48.216;-1.698;2023-03-04T07:46:30;15.05;;;13.85;;
16862;SDS011;52193;48.216;-1.698;2023-03-04T07:48:58;14.70;;;13.60;;
16862;SDS011;52193;48.216;-1.698;2023-03-04T07:51:26;13.52;;;12.43;;
16862;SDS011;52193;48.216;-1.698;2023-03-04T07:53:55;13.73;;;12.68;;
16862;SDS011;52193;48.216;-1.698;2023-03-04T07:56:24;13.90;;;12.90;;
16862;SDS011;52193;48.216;-1.698;2023-03-04T07:58:52;13.85;;;12.75;;
16862;SDS011;52193;48.216;-1.698;2023-03-04T08:01:21;14.30;;;13.18;;
16862;SDS011;52193;48.216;-1.698;2023-03-04T08:03:50;14.15;;;12.93;;
16862;SDS011;52193;48.216;-1.698;2023-03-04T08:06:19;12.70;;;11.75;;
16862;SDS011;52193;48.216;-1.698;2023-03-04T08:08:47;12.75;;;11.75;;
16862;SDS011;52193;48.216;-1.698;2023-03-04T08:11:15;12.15;;;11.35;;
16862;SDS011;52193;48.216;-1.698;2023-03-04T08:13:43;12.43;;;11.52;;
16862;SDS011;52193;48.216;-1.698;2023-03-04T08:16:11;11.95;;;11.20;;
16862;SDS011;52193;48.216;-1.698;2023-03-04T08:18:39;12.18;;;11.38;;
16862;SDS011;52193;48.216;-1.698;2023-03-04T08:21:07;12.43;;;11.40;;
16862;SDS011;52193;48.216;-1.698;2023-03-04T08:23:37;11.85;;;11.05;;
16862;SDS011;52193;48.216;-1.698;2023-03-04T08:26:06;11.55;;;10.75;;
16862;SDS011;52193;48.216;-1.698;2023-03-04T08:28:34;11.57;;;10.77;;
16862;SDS011;52193;48.216;-1.698;2023-03-04T08:31:01;12.32;;;11.32;;
16862;SDS011;52193;48.216;-1.698;2023-03-04T08:33:28;10.75;;;10.05;;
16862;SDS011;52193;48.216;-1.698;2023-03-04T08:35:55;9.73;;;9.02;;
16862;SDS011;52193;48.216;-1.698;2023-03-04T08:38:22;9.40;;;8.75;;
16862;SDS011;52193;48.216;-1.698;2023-03-04T08:40:52;9.52;;;8.82;;
16862;SDS011;52193;48.216;-1.698;2023-03-04T08:43:19;9.00;;;8.38;;
16862;SDS011;52193;48.216;-1.698;2023-03-04T08:45:47;10.23;;;9.27;;
16862;SDS011;52193;48.216;-1.698;2023-03-04T08:48:15;9.85;;;9.20;;
16862;SDS011;52193;48.216;-1.698;2023-03-04T08:50:44;8.98;;;8.35;;
16862;SDS011;52193;48.216;-1.698;2023-03-04T08:53:11;8.48;;;7.97;;
16862;SDS011;52193;48.216;-1.698;2023-03-04T08:55:39;9.15;;;8.45;;
16862;SDS011;52193;48.216;-1.698;2023-03-04T08:58:08;8.80;;;8.20;;
16862;SDS011;52193;48.216;-1.698;2023-03-04T09:00:36;8.65;;;8.05;;
16862;SDS011;52193;48.216;-1.698;2023-03-04T09:03:07;8.50;;;7.90;;
16862;SDS011;52193;48.216;-1.698;2023-03-04T09:05:35;10.10;;;9.30;;
16862;SDS011;52193;48.216;-1.698;2023-03-04T09:08:03;8.65;;;8.05;;
16862;SDS011;52193;48.216;-1.698;2023-03-04T09:10:30;8.70;;;8.10;;
16862;SDS011;52193;48.216;-1.698;2023-03-04T09:12:57;9.60;;;8.80;;
16862;SDS011;52193;48.216;-1.698;2023-03-04T09:15:26;9.23;;;8.63;;
16862;SDS011;52193;48.216;-1.698;2023-03-04T09:17:53;10.33;;;9.53;;
16862;SDS011;52193;48.216;-1.698;2023-03-04T09:20:20;10.23;;;9.43;;
16862;SDS011;52193;48.216;-1.698;2023-03-04T09:22:47;10.23;;;9.43;;
16862;SDS011;52193;48.216;-1.698;2023-03-04T09:25:14;9.77;;;9.07;;
16862;SDS011;52193;48.216;-1.698;2023-03-04T09:27:41;9.18;;;8.48;;
16862;SDS011;52193;48.216;-1.698;2023-03-04T09:30:08;8.63;;;8.02;;
16862;SDS011;52193;48.216;-1.698;2023-03-04T09:32:37;9.73;;;8.93;;
16862;SDS011;52193;48.216;-1.698;2023-03-04T09:35:05;8.65;;;8.05;;
16862;SDS011;52193;48.216;-1.698;2023-03-04T09:37:34;8.70;;;8.10;;
16862;SDS011;52193;48.216;-1.698;2023-03-04T09:40:01;9.10;;;8.30;;
16862;SDS011;52193;48.216;-1.698;2023-03-04T09:42:31;8.25;;;7.65;;
16862;SDS011;52193;48.216;-1.698;2023-03-04T09:45:00;8.00;;;7.40;;
16862;SDS011;52193;48.216;-1.698;2023-03-04T09:47:28;8.00;;;7.30;;
16862;SDS011;52193;48.216;-1.698;2023-03-04T09:49:59;7.63;;;7.00;;
16862;SDS011;52193;48.216;-1.698;2023-03-04T09:52:30;11.00;;;9.90;;
16862;SDS011;52193;48.216;-1.698;2023-03-04T09:55:13;7.50;;;6.90;;
16862;SDS011;52193;48.216;-1.698;2023-03-04T09:57:46;7.80;;;7.10;;
16862;SDS011;52193;48.216;-1.698;2023-03-04T10:00:18;6.90;;;6.40;;
16862;SDS011;52193;48.216;-1.698;2023-03-04T10:05:45;7.30;;;6.60;;
16862;SDS011;52193;48.216;-1.698;2023-03-04T10:11:12;7.13;;;6.47;;
16862;SDS011;52193;48.216;-1.698;2023-03-04T10:13:42;6.72;;;6.20;;
16862;SDS011;52193;48.216;-1.698;2023-03-04T10:16:20;6.97;;;6.28;;
16862;SDS011;52193;48.216;-1.698;2023-03-04T10:18:51;5.75;;;5.28;;
16862;SDS011;52193;48.216;-1.698;2023-03-04T10:21:23;6.90;;;6.28;;
16862;SDS011;52193;48.216;-1.698;2023-03-04T10:23:55;6.43;;;5.68;;
16862;SDS011;52193;48.216;-1.698;2023-03-04T10:26:23;6.40;;;5.90;;
16862;SDS011;52193;48.216;-1.698;2023-03-04T10:28:57;6.82;;;6.10;;
16862;SDS011;52193;48.216;-1.698;2023-03-04T10:31:29;6.28;;;5.78;;
16862;SDS011;52193;48.216;-1.698;2023-03-04T10:33:59;6.43;;;5.93;;
16862;SDS011;52193;48.216;-1.698;2023-03-04T10:36:37;6.60;;;6.00;;
16862;SDS011;52193;48.216;-1.698;2023-03-04T10:39:12;6.40;;;5.80;;
16862;SDS011;52193;48.216;-1.698;2023-03-04T10:41:44;7.38;;;6.78;;
16862;SDS011;52193;48.216;-1.698;2023-03-04T10:44:19;8.50;;;6.88;;
16862;SDS011;52193;48.216;-1.698;2023-03-04T10:46:47;7.50;;;5.70;;
16862;SDS011;52193;48.216;-1.698;2023-03-04T10:49:15;6.40;;;5.75;;
16862;SDS011;52193;48.216;-1.698;2023-03-04T10:51:45;7.45;;;6.75;;
16862;SDS011;52193;48.216;-1.698;2023-03-04T10:54:19;6.25;;;5.68;;
16862;SDS011;52193;48.216;-1.698;2023-03-04T10:56:57;6.53;;;5.93;;
16862;SDS011;52193;48.216;-1.698;2023-03-04T10:59:39;5.45;;;5.05;;
16862;SDS011;52193;48.216;-1.698;2023-03-04T11:05:04;5.90;;;5.15;;
16862;SDS011;52193;48.216;-1.698;2023-03-04T11:07:43;6.32;;;5.35;;
16862;SDS011;52193;48.216;-1.698;2023-03-04T11:10:13;5.88;;;5.38;;
16862;SDS011;52193;48.216;-1.698;2023-03-04T11:12:47;6.25;;;5.65;;
16862;SDS011;52193;48.216;-1.698;2023-03-04T11:15:16;6.25;;;5.65;;
16862;SDS011;52193;48.216;-1.698;2023-03-04T11:17:46;5.85;;;5.25;;
16862;SDS011;52193;48.216;-1.698;2023-03-04T11:20:16;5.95;;;5.35;;
16862;SDS011;52193;48.216;-1.698;2023-03-04T11:22:53;5.95;;;4.68;;
16862;SDS011;52193;48.216;-1.698;2023-03-04T11:25:24;7.97;;;4.50;;
16862;SDS011;52193;48.216;-1.698;2023-03-04T11:27:54;6.03;;;4.00;;
16862;SDS011;52193;48.216;-1.698;2023-03-04T11:30:27;4.70;;;4.25;;
16862;SDS011;52193;48.216;-1.698;2023-03-04T11:33:02;4.38;;;3.97;;
16862;SDS011;52193;48.216;-1.698;2023-03-04T11:35:49;6.03;;;4.85;;
16862;SDS011;52193;48.216;-1.698;2023-03-04T11:38:28;5.22;;;4.72;;
16862;SDS011;52193;48.216;-1.698;2023-03-04T11:41:00;4.90;;;4.40;;
16862;SDS011;52193;48.216;-1.698;2023-03-04T11:43:31;4.30;;;3.90;;
16862;SDS011;52193;48.216;-1.698;2023-03-04T11:46:22;4.70;;;4.25;;
16862;SDS011;52193;48.216;-1.698;2023-03-04T11:49:26;5.28;;;4.47;;
16862;SDS011;52193;48.216;-1.698;2023-03-04T11:52:14;5.13;;;4.63;;
16862;SDS011;52193;48.216;-1.698;2023-03-04T11:54:52;5.45;;;4.95;;
16862;SDS011;52193;48.216;-1.698;2023-03-04T11:57:37;4.93;;;4.53;;
16862;SDS011;52193;48.216;-1.698;2023-03-04T12:00:15;4.85;;;4.45;;
16862;SDS011;52193;48.216;-1.698;2023-03-04T12:02:53;4.85;;;4.43;;
16862;SDS011;52193;48.216;-1.698;2023-03-04T12:05:42;7.80;;;5.43;;
16862;SDS011;52193;48.216;-1.698;2023-03-04T12:11:21;5.68;;;5.07;;
16862;SDS011;52193;48.216;-1.698;2023-03-04T12:14:01;5.25;;;4.80;;
16862;SDS011;52193;48.216;-1.698;2023-03-04T12:16:49;5.07;;;4.55;;
16862;SDS011;52193;48.216;-1.698;2023-03-04T12:19:41;4.72;;;4.32;;
16862;SDS011;52193;48.216;-1.698;2023-03-04T12:22:22;4.13;;;3.65;;
16862;SDS011;52193;48.216;-1.698;2023-03-04T12:25:02;4.30;;;4.00;;
16862;SDS011;52193;48.216;-1.698;2023-03-04T12:27:52;4.88;;;3.78;;
16862;SDS011;52193;48.216;-1.698;2023-03-04T12:30:32;6.32;;;5.55;;
16862;SDS011;52193;48.216;-1.698;2023-03-04T12:33:07;8.57;;;7.32;;
16862;SDS011;52193;48.216;-1.698;2023-03-04T12:35:45;6.70;;;5.97;;
16862;SDS011;52193;48.216;-1.698;2023-03-04T12:38:31;7.80;;;7.10;;
16862;SDS011;52193;48.216;-1.698;2023-03-04T12:41:09;6.90;;;6.28;;
16862;SDS011;52193;48.216;-1.698;2023-03-04T12:43:50;7.53;;;6.20;;
16862;SDS011;52193;48.216;-1.698;2023-03-04T12:46:26;7.00;;;6.30;;
16862;SDS011;52193;48.216;-1.698;2023-03-04T12:49:08;6.05;;;5.53;;
16862;SDS011;52193;48.216;-1.698;2023-03-04T12:51:48;8.90;;;6.60;;
16862;SDS011;52193;48.216;-1.698;2023-03-04T12:54:24;7.47;;;6.88;;
16862;SDS011;52193;48.216;-1.698;2023-03-04T12:56:58;6.85;;;6.25;;
16862;SDS011;52193;48.216;-1.698;2023-03-04T12:59:29;7.55;;;6.72;;
16862;SDS011;52193;48.216;-1.698;2023-03-04T13:02:07;6.75;;;6.15;;
16862;SDS011;52193;48.216;-1.698;2023-03-04T13:04:52;7.28;;;6.45;;
16862;SDS011;52193;48.216;-1.698;2023-03-04T13:07:26;7.47;;;6.75;;
16862;SDS011;52193;48.216;-1.698;2023-03-04T13:10:06;6.60;;;5.97;;
16862;SDS011;52193;48.216;-1.698;2023-03-04T13:12:46;6.32;;;5.72;;
16862;SDS011;52193;48.216;-1.698;2023-03-04T13:15:17;6.38;;;5.78;;
16862;SDS011;52193;48.216;-1.698;2023-03-04T13:17:55;8.57;;;6.80;;
16862;SDS011;52193;48.216;-1.698;2023-03-04T13:20:24;6.05;;;5.55;;
16862;SDS011;52193;48.216;-1.698;2023-03-04T13:22:59;6.38;;;5.85;;
16862;SDS011;52193;48.216;-1.698;2023-03-04T13:25:33;5.57;;;5.18;;
16862;SDS011;52193;48.216;-1.698;2023-03-04T13:28:14;6.30;;;5.70;;
16862;SDS011;52193;48.216;-1.698;2023-03-04T13:33:45;5.70;;;5.10;;
16862;SDS011;52193;48.216;-1.698;2023-03-04T13:39:26;7.43;;;6.55;;
16862;SDS011;52193;48.216;-1.698;2023-03-04T13:42:03;6.00;;;5.50;;
16862;SDS011;52193;48.216;-1.698;2023-03-04T13:44:58;6.85;;;5.80;;
16862;SDS011;52193;48.216;-1.698;2023-03-04T13:47:31;6.88;;;5.95;;
16862;SDS011;52193;48.216;-1.698;2023-03-04T13:50:31;6.70;;;6.10;;
16862;SDS011;52193;48.216;-1.698;2023-03-04T13:53:27;6.78;;;5.75;;
16862;SDS011;52193;48.216;-1.698;2023-03-04T13:56:03;6.13;;;5.45;;
16862;SDS011;52193;48.216;-1.698;2023-03-04T13:58:36;6.40;;;5.80;;
16862;SDS011;52193;48.216;-1.698;2023-03-04T14:01:17;5.78;;;5.07;;
16862;SDS011;52193;48.216;-1.698;2023-03-04T14:03:50;5.43;;;4.95;;
16862;SDS011;52193;48.216;-1.698;2023-03-04T14:06:18;5.75;;;5.22;;
16862;SDS011;52193;48.216;-1.698;2023-03-04T14:08:47;6.20;;;5.30;;
16862;SDS011;52193;48.216;-1.698;2023-03-04T14:11:17;5.38;;;4.93;;
16862;SDS011;52193;48.216;-1.698;2023-03-04T14:13:50;7.55;;;5.78;;
16862;SDS011;52193;48.216;-1.698;2023-03-04T14:16:19;6.03;;;5.43;;
16862;SDS011;52193;48.216;-1.698;2023-03-04T14:18:58;5.13;;;4.72;;
16862;SDS011;52193;48.216;-1.698;2023-03-04T14:21:27;6.05;;;5.45;;
16862;SDS011;52193;48.216;-1.698;2023-03-04T14:24:02;6.18;;;5.57;;
16862;SDS011;52193;48.216;-1.698;2023-03-04T14:26:31;6.35;;;5.45;;
16862;SDS011;52193;48.216;-1.698;2023-03-04T14:28:59;7.10;;;6.40;;
16862;SDS011;52193;48.216;-1.698;2023-03-04T14:31:28;7.05;;;6.35;;
16862;SDS011;52193;48.216;-1.698;2023-03-04T14:33:57;6.05;;;5.53;;
16862;SDS011;52193;48.216;-1.698;2023-03-04T14:36:27;5.03;;;4.53;;
16862;SDS011;52193;48.216;-1.698;2023-03-04T14:38:57;5.85;;;5.28;;
16862;SDS011;52193;48.216;-1.698;2023-03-04T14:41:27;5.80;;;5.30;;
16862;SDS011;52193;48.216;-1.698;2023-03-04T14:44:02;5.50;;;5.00;;
16862;SDS011;52193;48.216;-1.698;2023-03-04T14:46:35;5.65;;;5.10;;
16862;SDS011;52193;48.216;-1.698;2023-03-04T14:49:05;5.80;;;5.10;;
16862;SDS011;52193;48.216;-1.698;2023-03-04T14:51:40;5.40;;;4.90;;
16862;SDS011;52193;48.216;-1.698;2023-03-04T14:54:24;6.03;;;5.22;;
16862;SDS011;52193;48.216;-1.698;2023-03-04T14:56:59;5.32;;;4.85;;
16862;SDS011;52193;48.216;-1.698;2023-03-04T14:59:40;5.60;;;5.10;;
16862;SDS011;52193;48.216;-1.698;2023-03-04T15:02:17;5.57;;;5.07;;